Castilleja de la Cuesta, Spain
Current Conditions -  °F | °C
As of 7:00 AM on Sunday 21 Dec 2014 (Local Time) from LEMO Reporting Station
Moderate Fog Moderate Fog  
Wind Chill: 39°   Ceiling: 100
Heat Index: 39°   Visibility: 0.12mi
Dew Point: 39°   Wind: 2mph
Humidity: 100%   Direction: 120°ESE
Pressure: 30.42"   Gusts: NA
Location:  37.39°N, 6.05°W
Report Text: LEMO 210600Z 12002KT 0200 R02/0650 R20/1200 FG VV001 04/04 Q1030 NOSIG
Loading
Personal Weather Stations






























Interactive Weather Map New forecast layout! Learn more

10-Day Weather Forecast

Advertisements
Track Severe Weather on mobile